createdAt,value
2023-11-15T00:00:04.166Z,0.00
2023-11-15T00:00:54.950Z,0.00
2023-11-15T00:01:45.748Z,0.00
2023-11-15T00:02:36.599Z,0.00
2023-11-15T00:03:27.450Z,0.00
2023-11-15T00:04:18.260Z,0.00
2023-11-15T00:05:09.103Z,0.00
2023-11-15T00:05:59.911Z,0.00
2023-11-15T00:06:50.707Z,0.00
2023-11-15T00:07:41.470Z,0.00
2023-11-15T00:08:32.302Z,0.00
2023-11-15T00:09:23.047Z,0.00
2023-11-15T00:10:13.848Z,0.00
2023-11-15T00:11:04.630Z,0.00
2023-11-15T00:11:55.441Z,0.00
2023-11-15T00:12:46.193Z,0.00
2023-11-15T00:13:36.980Z,0.00
2023-11-15T00:14:27.803Z,0.00
2023-11-15T00:15:18.547Z,0.00
2023-11-15T00:16:09.366Z,0.00
2023-11-15T00:17:00.117Z,0.00
2023-11-15T00:17:50.980Z,0.00
2023-11-15T00:18:41.744Z,0.00
2023-11-15T00:19:32.520Z,0.00
2023-11-15T00:20:23.337Z,0.00
2023-11-15T00:21:14.098Z,0.00
2023-11-15T00:22:04.897Z,0.00
2023-11-15T00:22:55.657Z,0.00
2023-11-15T00:23:46.522Z,0.00
2023-11-15T00:24:37.263Z,0.00
2023-11-15T00:25:28.063Z,0.00
2023-11-15T00:26:18.878Z,0.00
2023-11-15T00:27:09.636Z,0.00
2023-11-15T00:28:00.415Z,0.00
2023-11-15T00:28:51.197Z,0.00
2023-11-15T00:29:42.017Z,0.00
2023-11-15T00:30:32.774Z,0.00
2023-11-15T00:31:23.554Z,0.00
2023-11-15T00:32:14.341Z,0.00
2023-11-15T00:33:05.152Z,0.00
2023-11-15T00:33:55.923Z,0.00
2023-11-15T00:34:46.693Z,0.00
2023-11-15T00:35:37.560Z,0.00
2023-11-15T00:36:28.384Z,0.00
2023-11-15T00:37:19.185Z,0.00
2023-11-15T00:38:09.965Z,0.00
2023-11-15T00:39:00.752Z,0.00
2023-11-15T00:39:51.538Z,0.00
2023-11-15T00:40:42.326Z,0.00
2023-11-15T00:41:33.126Z,0.00
2023-11-15T00:42:23.913Z,0.00
2023-11-15T00:43:14.681Z,0.00
2023-11-15T00:44:05.473Z,0.00
2023-11-15T00:44:56.389Z,0.00
2023-11-15T00:45:47.188Z,0.00
2023-11-15T00:46:37.941Z,0.00
2023-11-15T00:47:28.773Z,0.00
2023-11-15T00:48:19.718Z,0.00
2023-11-15T00:49:10.514Z,0.00
2023-11-15T00:50:01.290Z,0.00
2023-11-15T00:50:52.157Z,0.00
2023-11-15T00:51:42.886Z,0.00
2023-11-15T00:52:33.666Z,0.00
2023-11-15T00:53:24.467Z,0.00
2023-11-15T00:54:15.240Z,0.00
2023-11-15T00:55:06.023Z,0.00
2023-11-15T00:55:56.809Z,0.00
2023-11-15T00:56:47.623Z,0.00
2023-11-15T00:57:39.392Z,0.00
2023-11-15T00:58:29.543Z,0.00
2023-11-15T00:59:20.289Z,0.00
2023-11-15T01:00:11.068Z,0.00
2023-11-15T01:01:01.858Z,0.00
2023-11-15T01:01:52.674Z,0.00
2023-11-15T01:02:43.567Z,0.00
2023-11-15T01:03:34.638Z,0.00
2023-11-15T01:04:25.532Z,0.00
2023-11-15T01:05:16.289Z,0.00
2023-11-15T01:06:07.095Z,0.00
2023-11-15T01:06:57.848Z,0.00
2023-11-15T01:07:48.637Z,0.00
2023-11-15T01:08:39.424Z,0.00
2023-11-15T01:09:30.194Z,0.00
2023-11-15T01:10:20.976Z,0.00
2023-11-15T01:11:11.784Z,0.00
2023-11-15T01:12:02.572Z,0.00
2023-11-15T01:12:53.355Z,0.00
2023-11-15T01:13:44.143Z,0.00
2023-11-15T01:14:34.981Z,0.00
2023-11-15T01:15:25.718Z,0.00
2023-11-15T01:16:16.540Z,0.00
2023-11-15T01:17:07.290Z,0.00
2023-11-15T01:17:58.205Z,0.00
2023-11-15T01:18:48.995Z,0.00
2023-11-15T01:19:39.786Z,0.00
2023-11-15T01:20:30.632Z,0.00
2023-11-15T01:21:21.395Z,0.00
2023-11-15T01:22:12.155Z,0.00
2023-11-15T01:23:02.954Z,0.00
2023-11-15T01:23:53.786Z,0.00
2023-11-15T01:24:44.528Z,0.00
2023-11-15T01:25:35.321Z,0.00
2023-11-15T01:26:26.137Z,0.00
2023-11-15T01:27:16.887Z,0.00
2023-11-15T01:28:07.683Z,0.00
2023-11-15T01:28:58.460Z,0.00
2023-11-15T01:29:49.265Z,0.00
2023-11-15T01:30:40.033Z,0.00
2023-11-15T01:31:30.833Z,0.00
2023-11-15T01:32:21.646Z,0.00
2023-11-15T01:33:12.449Z,0.00
2023-11-15T01:34:03.234Z,0.00
2023-11-15T01:34:54.007Z,0.00
2023-11-15T01:35:44.813Z,0.00
2023-11-15T01:36:35.612Z,0.00
2023-11-15T01:37:26.358Z,0.00
2023-11-15T01:38:17.158Z,0.00
2023-11-15T01:39:07.938Z,0.00
2023-11-15T01:39:58.714Z,0.00
2023-11-15T01:40:49.511Z,0.00
2023-11-15T01:41:40.310Z,0.00
2023-11-15T01:42:31.085Z,0.00
2023-11-15T01:43:21.866Z,0.00
2023-11-15T01:44:12.646Z,0.00
2023-11-15T01:45:03.431Z,0.00
2023-11-15T01:45:54.230Z,0.00
2023-11-15T01:46:45.078Z,0.00
2023-11-15T01:47:35.866Z,0.00
2023-11-15T01:48:26.673Z,0.00
2023-11-15T01:49:17.477Z,0.00
2023-11-15T01:50:08.259Z,0.00
2023-11-15T01:50:59.039Z,0.00
2023-11-15T01:51:49.858Z,0.00
2023-11-15T01:52:40.618Z,0.00
2023-11-15T01:53:31.422Z,0.00
2023-11-15T01:54:22.194Z,0.00
2023-11-15T01:55:12.982Z,0.00
2023-11-15T01:56:03.761Z,0.00
2023-11-15T01:56:54.589Z,0.00
2023-11-15T01:57:45.341Z,0.00
2023-11-15T01:58:36.133Z,0.00
2023-11-15T01:59:26.931Z,0.00
2023-11-15T02:00:17.721Z,0.00
2023-11-15T02:01:08.491Z,0.00
2023-11-15T02:01:59.331Z,0.00
2023-11-15T02:02:50.199Z,0.00
2023-11-15T02:03:41.136Z,0.00
2023-11-15T02:04:31.942Z,0.00
2023-11-15T02:05:22.743Z,0.00
2023-11-15T02:06:13.607Z,0.00
2023-11-15T02:07:04.418Z,0.00
2023-11-15T02:07:55.206Z,0.00
2023-11-15T02:08:46.056Z,0.00
2023-11-15T02:09:36.790Z,0.00
2023-11-15T02:10:27.581Z,0.00
2023-11-15T02:11:18.380Z,0.00
2023-11-15T02:12:09.155Z,0.00
2023-11-15T02:12:59.946Z,0.00
2023-11-15T02:13:50.731Z,0.00
2023-11-15T02:14:41.553Z,0.00
2023-11-15T02:15:32.304Z,0.00
2023-11-15T02:16:23.097Z,0.00
2023-11-15T02:17:13.877Z,0.00
2023-11-15T02:18:04.717Z,0.00
2023-11-15T02:18:55.462Z,0.00
2023-11-15T02:19:46.240Z,0.00
2023-11-15T02:20:37.076Z,0.00
2023-11-15T02:21:27.805Z,0.00
2023-11-15T02:22:18.617Z,0.00
2023-11-15T02:23:09.384Z,0.00
2023-11-15T02:24:00.265Z,0.00
2023-11-15T02:24:51.000Z,0.00
2023-11-15T02:25:41.792Z,0.00
2023-11-15T02:26:32.613Z,0.00
2023-11-15T02:27:23.367Z,0.00
2023-11-15T02:28:14.153Z,0.00
2023-11-15T02:29:04.944Z,0.00
2023-11-15T02:29:55.748Z,0.00
2023-11-15T02:30:46.598Z,0.00
2023-11-15T02:31:37.351Z,0.00
2023-11-15T02:32:28.204Z,0.00
2023-11-15T02:33:19.093Z,0.00
2023-11-15T02:34:09.953Z,0.00
2023-11-15T02:35:00.735Z,0.00
2023-11-15T02:35:51.555Z,0.00
2023-11-15T02:36:42.308Z,0.00
2023-11-15T02:37:33.115Z,0.00
2023-11-15T02:38:23.898Z,0.00
2023-11-15T02:39:14.657Z,0.00
2023-11-15T02:40:05.433Z,0.00
2023-11-15T02:40:56.231Z,0.00
2023-11-15T02:41:47.086Z,0.00
2023-11-15T02:42:37.823Z,0.00
2023-11-15T02:43:28.613Z,0.00
2023-11-15T02:44:19.400Z,0.00
2023-11-15T02:45:10.265Z,0.00
2023-11-15T02:46:01.013Z,0.00
2023-11-15T02:46:51.773Z,0.00
2023-11-15T02:47:42.613Z,0.00
2023-11-15T02:48:33.666Z,0.00
2023-11-15T02:49:24.523Z,0.00
2023-11-15T02:50:15.259Z,0.00
2023-11-15T02:51:06.043Z,0.00
2023-11-15T02:51:56.834Z,0.00
2023-11-15T02:52:47.641Z,0.00
2023-11-15T02:53:38.419Z,0.00
2023-11-15T02:54:29.190Z,0.00
2023-11-15T02:55:19.968Z,0.00
2023-11-15T02:56:10.752Z,0.00
2023-11-15T02:57:01.570Z,0.00
2023-11-15T02:57:52.320Z,0.00
2023-11-15T02:58:43.102Z,0.00
2023-11-15T02:59:33.914Z,0.00
2023-11-15T03:00:24.673Z,0.00
2023-11-15T03:01:15.507Z,0.00
2023-11-15T03:02:06.254Z,0.00
2023-11-15T03:02:57.375Z,0.00
2023-11-15T03:03:48.324Z,0.00
2023-11-15T03:04:39.102Z,0.00
2023-11-15T03:05:30.342Z,0.00
2023-11-15T03:06:20.866Z,0.00
2023-11-15T03:07:11.639Z,0.00
2023-11-15T03:08:02.458Z,0.00
2023-11-15T03:08:53.274Z,0.00
2023-11-15T03:09:43.972Z,0.00
2023-11-15T03:10:34.644Z,0.00
2023-11-15T03:11:25.411Z,0.00
2023-11-15T03:12:16.174Z,0.00
2023-11-15T03:13:06.857Z,0.00
2023-11-15T03:13:57.533Z,0.00
2023-11-15T03:14:48.272Z,0.00
2023-11-15T03:15:39.382Z,0.00
2023-11-15T03:16:30.207Z,0.00
2023-11-15T03:17:21.531Z,0.00
2023-11-15T03:18:12.719Z,0.00
2023-11-15T03:19:03.890Z,0.00
2023-11-15T03:19:54.559Z,0.00
2023-11-15T03:20:45.841Z,0.00
2023-11-15T03:21:37.031Z,0.00
2023-11-15T03:22:28.260Z,0.00
2023-11-15T03:23:19.019Z,0.00
2023-11-15T03:24:10.253Z,0.00
2023-11-15T03:25:00.945Z,0.00
2023-11-15T03:25:51.552Z,0.00
2023-11-15T03:26:42.757Z,0.00
2023-11-15T03:27:33.402Z,0.00
2023-11-15T03:28:24.081Z,0.00
2023-11-15T03:29:14.817Z,0.00
2023-11-15T03:30:05.531Z,0.00
2023-11-15T03:30:56.754Z,0.00
2023-11-15T03:31:47.412Z,0.00
2023-11-15T03:32:38.200Z,0.00
2023-11-15T03:33:29.103Z,0.00
2023-11-15T03:34:19.808Z,0.00
2023-11-15T03:35:10.528Z,0.00
2023-11-15T03:36:01.349Z,0.00
2023-11-15T03:36:52.057Z,0.00
2023-11-15T03:37:42.871Z,0.00
2023-11-15T03:38:33.756Z,0.00
2023-11-15T03:39:24.509Z,0.00
2023-11-15T03:40:15.348Z,0.00
2023-11-15T03:41:06.087Z,0.00
2023-11-15T03:41:56.999Z,0.00
2023-11-15T03:42:47.763Z,0.00
2023-11-15T03:43:38.557Z,0.00
2023-11-15T03:44:29.351Z,0.00
2023-11-15T03:45:20.131Z,0.00
2023-11-15T03:46:10.963Z,0.00
2023-11-15T03:47:01.673Z,0.00
2023-11-15T03:47:52.552Z,0.00
2023-11-15T03:48:43.318Z,0.00
2023-11-15T03:49:34.104Z,0.00
2023-11-15T03:50:24.934Z,0.00
2023-11-15T03:51:15.674Z,0.00
2023-11-15T03:52:06.492Z,0.00
2023-11-15T03:52:57.252Z,0.00
2023-11-15T03:53:48.130Z,0.00
2023-11-15T03:54:38.869Z,0.00
2023-11-15T03:55:29.675Z,0.00
2023-11-15T03:56:20.461Z,0.00
2023-11-15T03:57:11.251Z,0.00
2023-11-15T03:58:02.030Z,0.00
2023-11-15T03:58:52.817Z,0.00
2023-11-15T03:59:43.623Z,0.00
2023-11-15T04:00:34.379Z,0.00
2023-11-15T04:01:25.168Z,0.00
2023-11-15T04:02:16.015Z,0.00
2023-11-15T04:03:06.916Z,0.00
2023-11-15T04:03:57.816Z,0.00
2023-11-15T04:04:48.727Z,0.00
2023-11-15T04:05:39.808Z,0.00
2023-11-15T04:06:30.620Z,0.00
2023-11-15T04:07:21.415Z,0.00
2023-11-15T04:08:12.199Z,0.00
2023-11-15T04:09:02.996Z,0.00
2023-11-15T04:09:53.757Z,0.00
2023-11-15T04:10:44.556Z,0.00
2023-11-15T04:11:35.364Z,0.00
2023-11-15T04:12:26.129Z,0.00
2023-11-15T04:13:16.900Z,0.00
2023-11-15T04:14:07.706Z,0.00
2023-11-15T04:14:58.499Z,0.00
2023-11-15T04:15:49.284Z,0.00
2023-11-15T04:16:40.064Z,0.00
2023-11-15T04:17:30.903Z,0.00
2023-11-15T04:18:21.688Z,0.00
2023-11-15T04:19:12.440Z,0.00
2023-11-15T04:20:03.210Z,0.00
2023-11-15T04:20:54.036Z,0.00
2023-11-15T04:21:44.801Z,0.00
2023-11-15T04:22:35.585Z,0.00
2023-11-15T04:23:26.405Z,0.00
2023-11-15T04:24:17.186Z,0.00
2023-11-15T04:25:07.947Z,0.00
2023-11-15T04:25:58.737Z,0.00
2023-11-15T04:26:49.550Z,0.00
2023-11-15T04:27:40.327Z,0.00
2023-11-15T04:28:31.112Z,0.00
2023-11-15T04:29:21.890Z,0.00
2023-11-15T04:30:12.704Z,0.00
2023-11-15T04:31:03.456Z,0.00
2023-11-15T04:31:54.265Z,0.00
2023-11-15T04:32:45.140Z,0.00
2023-11-15T04:33:35.997Z,0.00
2023-11-15T04:34:26.730Z,0.00
2023-11-15T04:35:17.498Z,0.00
2023-11-15T04:36:08.284Z,0.00
2023-11-15T04:36:59.075Z,0.00
2023-11-15T04:37:49.865Z,0.00
2023-11-15T04:38:40.656Z,0.00
2023-11-15T04:39:31.449Z,0.00
2023-11-15T04:40:22.186Z,0.00
2023-11-15T04:41:13.061Z,0.00
2023-11-15T04:42:03.901Z,0.00
2023-11-15T04:42:54.665Z,0.00
2023-11-15T04:43:45.443Z,0.00
2023-11-15T04:44:36.289Z,0.00
2023-11-15T04:45:27.035Z,0.00
2023-11-15T04:46:17.881Z,0.00
2023-11-15T04:47:08.641Z,0.00
2023-11-15T04:47:59.493Z,0.00
2023-11-15T04:48:50.244Z,0.00
2023-11-15T04:49:41.031Z,0.00
2023-11-15T04:50:31.833Z,0.00
2023-11-15T04:51:22.627Z,0.00
2023-11-15T04:52:13.390Z,0.00
2023-11-15T04:53:04.186Z,0.00
2023-11-15T04:53:54.997Z,0.00
2023-11-15T04:54:46.094Z,0.00
2023-11-15T04:55:36.783Z,0.00
2023-11-15T04:56:27.581Z,0.00
2023-11-15T04:57:18.312Z,0.00
2023-11-15T04:58:09.077Z,0.00
2023-11-15T04:58:59.844Z,0.00
2023-11-15T04:59:50.638Z,0.00
2023-11-15T05:00:41.363Z,0.00
2023-11-15T05:01:32.156Z,0.00
2023-11-15T05:02:22.913Z,0.00
2023-11-15T05:03:13.824Z,0.00
2023-11-15T05:04:04.764Z,0.00
2023-11-15T05:04:55.602Z,0.00
2023-11-15T05:05:46.413Z,0.00
2023-11-15T05:06:37.443Z,0.00
2023-11-15T05:07:28.210Z,0.00
2023-11-15T05:08:18.969Z,0.00
2023-11-15T05:09:09.730Z,0.00
2023-11-15T05:10:00.528Z,0.00
2023-11-15T05:10:51.240Z,0.00
2023-11-15T05:11:42.044Z,0.00
2023-11-15T05:12:32.775Z,0.00
2023-11-15T05:13:23.543Z,0.00
2023-11-15T05:14:14.534Z,0.00
2023-11-15T05:15:05.303Z,0.00
2023-11-15T05:15:56.089Z,0.00
2023-11-15T05:16:46.828Z,0.00
2023-11-15T05:17:37.732Z,0.00
2023-11-15T05:18:28.585Z,0.00
2023-11-15T05:19:19.356Z,0.00
2023-11-15T05:20:10.137Z,0.00
2023-11-15T05:21:00.916Z,0.00
2023-11-15T05:21:51.657Z,0.00
2023-11-15T05:22:42.416Z,0.00
2023-11-15T05:23:33.225Z,0.00
2023-11-15T05:24:23.946Z,0.00
2023-11-15T05:25:14.731Z,0.00
2023-11-15T05:26:05.466Z,0.00
2023-11-15T05:26:56.307Z,0.00
2023-11-15T05:27:47.025Z,0.00
2023-11-15T05:28:37.826Z,0.00
2023-11-15T05:29:28.578Z,0.00
2023-11-15T05:30:19.343Z,0.00
2023-11-15T05:31:10.080Z,0.00
2023-11-15T05:32:00.852Z,0.00
2023-11-15T05:32:51.692Z,0.00
2023-11-15T05:33:42.427Z,0.00
2023-11-15T05:34:33.185Z,0.00
2023-11-15T05:35:23.935Z,0.00
2023-11-15T05:36:14.694Z,0.00
2023-11-15T05:37:05.468Z,0.00
2023-11-15T05:37:56.240Z,0.00
2023-11-15T05:38:47.024Z,0.00
2023-11-15T05:39:37.746Z,0.00
2023-11-15T05:40:28.557Z,0.00
2023-11-15T05:41:19.282Z,0.00
2023-11-15T05:42:10.058Z,0.00
2023-11-15T05:43:00.806Z,0.00
2023-11-15T05:43:51.574Z,0.00
2023-11-15T05:44:42.350Z,0.00
2023-11-15T05:45:33.102Z,0.00
2023-11-15T05:46:23.892Z,0.00
2023-11-15T05:47:14.629Z,0.00
2023-11-15T05:48:05.455Z,0.00
2023-11-15T05:48:56.181Z,0.00
2023-11-15T05:49:46.954Z,0.00
2023-11-15T05:50:37.746Z,0.00
2023-11-15T05:51:28.469Z,0.00
2023-11-15T05:52:19.237Z,0.00
2023-11-15T05:53:09.993Z,0.00
2023-11-15T05:54:00.771Z,0.00
2023-11-15T05:54:51.542Z,0.00
2023-11-15T05:55:42.320Z,0.00
2023-11-15T05:56:33.105Z,0.00
2023-11-15T05:57:23.828Z,0.00
2023-11-15T05:58:14.589Z,0.00
2023-11-15T05:59:05.356Z,0.00
2023-11-15T05:59:56.142Z,0.00
2023-11-15T06:00:46.883Z,0.00
2023-11-15T06:01:37.708Z,0.00
2023-11-15T06:02:28.476Z,0.00
2023-11-15T06:03:19.256Z,0.00
2023-11-15T06:04:10.034Z,0.00
2023-11-15T06:05:00.740Z,0.00
2023-11-15T06:05:51.596Z,0.00
2023-11-15T06:06:42.357Z,0.00
2023-11-15T06:07:33.118Z,0.00
2023-11-15T06:08:23.872Z,0.00
2023-11-15T06:09:14.674Z,0.00
2023-11-15T06:10:05.405Z,0.00
2023-11-15T06:10:56.201Z,0.00
2023-11-15T06:11:46.958Z,0.00
2023-11-15T06:12:37.750Z,0.00
2023-11-15T06:13:28.525Z,0.00
2023-11-15T06:14:19.317Z,0.00
2023-11-15T06:15:10.225Z,0.00
2023-11-15T06:16:01.022Z,0.00
2023-11-15T06:16:51.846Z,0.00
2023-11-15T06:17:43.188Z,0.00
2023-11-15T06:18:34.050Z,0.00
2023-11-15T06:19:24.793Z,0.00
2023-11-15T06:20:15.362Z,0.00
2023-11-15T06:21:06.318Z,0.00
2023-11-15T06:21:57.240Z,0.00
2023-11-15T06:22:48.075Z,0.00
2023-11-15T06:23:38.945Z,0.00
2023-11-15T06:24:29.638Z,0.00
2023-11-15T06:25:20.557Z,0.00
2023-11-15T06:26:11.311Z,0.00
2023-11-15T06:27:02.200Z,0.00
2023-11-15T06:27:53.034Z,0.00
2023-11-15T06:28:43.914Z,0.00
2023-11-15T06:29:34.813Z,0.00
2023-11-15T06:30:25.734Z,0.00
2023-11-15T06:31:16.584Z,0.00
2023-11-15T06:32:07.800Z,0.00
2023-11-15T06:32:58.774Z,0.00
2023-11-15T06:33:49.797Z,0.00
2023-11-15T06:34:40.790Z,0.00
2023-11-15T06:35:31.682Z,0.00
2023-11-15T06:36:22.543Z,0.00
2023-11-15T06:37:13.417Z,0.00
2023-11-15T06:38:04.305Z,0.00
2023-11-15T06:38:55.180Z,0.00
2023-11-15T06:39:46.041Z,0.00
2023-11-15T06:40:36.896Z,0.00
2023-11-15T06:41:27.821Z,0.00
2023-11-15T06:42:18.671Z,0.00
2023-11-15T06:43:09.571Z,0.00
2023-11-15T06:44:00.446Z,0.00
2023-11-15T06:44:51.352Z,0.00
2023-11-15T06:45:42.209Z,0.00
2023-11-15T06:46:33.120Z,0.00
2023-11-15T06:47:23.989Z,0.00
2023-11-15T06:48:14.976Z,0.00
2023-11-15T06:49:05.886Z,0.00
2023-11-15T06:49:58.693Z,0.00
2023-11-15T06:50:47.970Z,0.00
2023-11-15T06:51:38.848Z,0.00
2023-11-15T06:52:29.731Z,0.00
2023-11-15T06:53:20.611Z,0.00
2023-11-15T06:54:11.517Z,0.00
2023-11-15T06:55:02.403Z,0.00
2023-11-15T06:55:53.272Z,0.00
2023-11-15T06:56:44.208Z,0.00
2023-11-15T06:57:35.058Z,0.00
2023-11-15T06:58:25.932Z,0.00
2023-11-15T06:59:16.812Z,0.00
2023-11-15T07:00:07.754Z,0.00
2023-11-15T07:00:58.607Z,0.00
2023-11-15T07:01:49.562Z,0.00
2023-11-15T07:02:40.461Z,0.00
2023-11-15T07:03:31.410Z,0.00
2023-11-15T07:04:22.350Z,0.00
2023-11-15T07:05:13.179Z,0.00
2023-11-15T07:06:04.092Z,0.00
2023-11-15T07:06:54.940Z,0.00
2023-11-15T07:07:45.841Z,0.00
2023-11-15T07:08:36.735Z,0.00
2023-11-15T07:09:27.598Z,0.00
2023-11-15T07:10:18.484Z,0.00
2023-11-15T07:11:09.488Z,0.00
2023-11-15T07:12:00.367Z,0.00
2023-11-15T07:12:53.037Z,0.00
2023-11-15T07:13:42.092Z,0.00
2023-11-15T07:14:33.015Z,0.00
2023-11-15T07:15:23.862Z,0.00
2023-11-15T07:16:14.767Z,0.00
2023-11-15T07:17:05.680Z,0.00
2023-11-15T07:17:56.680Z,0.00
2023-11-15T07:18:47.621Z,0.00
2023-11-15T07:19:38.485Z,0.00
2023-11-15T07:20:29.377Z,0.00
2023-11-15T07:21:20.266Z,0.00
2023-11-15T07:22:11.144Z,5.62
2023-11-15T07:23:02.025Z,5.62
2023-11-15T07:23:52.947Z,5.62
2023-11-15T07:24:43.789Z,5.62
2023-11-15T07:25:34.673Z,5.62
2023-11-15T07:26:25.545Z,5.62
2023-11-15T07:27:16.467Z,5.62
2023-11-15T07:28:07.333Z,5.62
2023-11-15T07:28:58.231Z,5.62
2023-11-15T07:29:49.154Z,5.62
2023-11-15T07:30:40.018Z,5.62
2023-11-15T07:31:30.924Z,5.62
2023-11-15T07:32:21.810Z,5.62
2023-11-15T07:33:12.770Z,5.62
2023-11-15T07:34:03.614Z,5.62
2023-11-15T07:34:54.504Z,5.62
2023-11-15T07:35:45.434Z,5.62
2023-11-15T07:36:36.309Z,5.62
2023-11-15T07:37:27.321Z,5.62
2023-11-15T07:38:18.178Z,5.62
2023-11-15T07:39:09.066Z,5.62
2023-11-15T07:39:59.950Z,5.62
2023-11-15T07:40:50.855Z,5.62
2023-11-15T07:41:41.790Z,5.62
2023-11-15T07:42:32.692Z,5.62
2023-11-15T07:43:23.565Z,5.62
2023-11-15T07:44:14.477Z,11.25
2023-11-15T07:45:05.451Z,11.25
2023-11-15T07:45:56.362Z,11.25
2023-11-15T07:46:47.251Z,11.25
2023-11-15T07:47:38.345Z,11.25
2023-11-15T07:48:29.330Z,11.25
2023-11-15T07:49:20.134Z,11.25
2023-11-15T07:50:11.052Z,11.25
2023-11-15T07:51:02.025Z,5.62
2023-11-15T07:51:52.873Z,5.62
2023-11-15T07:52:43.795Z,5.62
2023-11-15T07:53:34.741Z,5.62
2023-11-15T07:54:25.581Z,5.62
2023-11-15T07:55:16.623Z,5.62
2023-11-15T07:56:07.555Z,5.62
2023-11-15T07:56:58.463Z,5.62
2023-11-15T07:57:49.364Z,5.62
2023-11-15T07:58:40.274Z,5.62
2023-11-15T07:59:31.213Z,5.62
2023-11-15T08:00:22.088Z,5.62
2023-11-15T08:01:12.984Z,5.62
2023-11-15T08:02:03.882Z,5.62
2023-11-15T08:02:54.950Z,11.25
2023-11-15T08:03:46.017Z,11.25
2023-11-15T08:04:37.032Z,11.25
2023-11-15T08:05:27.952Z,11.25
2023-11-15T08:06:18.863Z,5.62
2023-11-15T08:07:09.760Z,5.62
2023-11-15T08:08:00.663Z,5.62
2023-11-15T08:08:51.626Z,5.62
2023-11-15T08:09:42.478Z,5.62
2023-11-15T08:10:33.368Z,5.62
2023-11-15T08:11:24.273Z,5.62
2023-11-15T08:12:15.176Z,5.62
2023-11-15T08:13:06.096Z,5.62
2023-11-15T08:13:57.870Z,5.62
2023-11-15T08:14:47.707Z,5.62
2023-11-15T08:15:38.599Z,5.62
2023-11-15T08:16:29.511Z,5.62
2023-11-15T08:17:20.440Z,11.25
2023-11-15T08:18:11.530Z,11.25
2023-11-15T08:19:02.755Z,11.25
2023-11-15T08:19:53.669Z,11.25
2023-11-15T08:20:44.606Z,11.25
2023-11-15T08:21:35.497Z,11.25
2023-11-15T08:22:26.409Z,11.25
2023-11-15T08:23:17.352Z,11.25
2023-11-15T08:24:08.320Z,11.25
2023-11-15T08:24:59.245Z,11.25
2023-11-15T08:25:50.151Z,11.25
2023-11-15T08:26:41.112Z,11.25
2023-11-15T08:27:31.976Z,11.25
2023-11-15T08:28:22.923Z,11.25
2023-11-15T08:29:13.818Z,11.25
2023-11-15T08:30:04.756Z,11.25
2023-11-15T08:30:55.637Z,11.25
2023-11-15T08:31:46.594Z,11.25
2023-11-15T08:32:37.549Z,11.25
2023-11-15T08:33:28.585Z,11.25
2023-11-15T08:34:23.430Z,11.25
2023-11-15T08:35:10.251Z,11.25
2023-11-15T08:36:01.240Z,11.25
2023-11-15T08:36:52.171Z,11.25
2023-11-15T08:37:43.131Z,11.25
2023-11-15T08:38:34.072Z,11.25
2023-11-15T08:39:24.950Z,11.25
2023-11-15T08:40:25.946Z,11.25
2023-11-15T08:41:07.835Z,11.25
2023-11-15T08:41:57.531Z,11.25
2023-11-15T08:42:48.408Z,11.25
2023-11-15T08:43:39.346Z,16.88
2023-11-15T08:44:30.237Z,16.88
2023-11-15T08:45:21.313Z,16.88
2023-11-15T08:46:12.204Z,16.88
2023-11-15T08:47:03.133Z,16.88
2023-11-15T08:47:54.179Z,16.88
2023-11-15T08:48:45.132Z,16.88
2023-11-15T08:49:36.060Z,16.88
2023-11-15T08:50:26.964Z,16.88
2023-11-15T08:51:17.869Z,16.88
2023-11-15T08:52:08.796Z,16.88
2023-11-15T08:52:59.728Z,16.88
2023-11-15T08:53:50.665Z,16.88
2023-11-15T08:54:41.546Z,11.25
2023-11-15T08:55:32.459Z,11.25
2023-11-15T08:56:23.367Z,11.25
2023-11-15T08:57:14.352Z,11.25
2023-11-15T08:58:05.219Z,11.25
2023-11-15T08:58:56.156Z,11.25
2023-11-15T08:59:47.108Z,11.25
2023-11-15T09:00:38.106Z,11.25
2023-11-15T09:01:28.949Z,11.25
2023-11-15T09:02:19.870Z,11.25
2023-11-15T09:03:10.931Z,11.25
2023-11-15T09:04:01.970Z,11.25
2023-11-15T09:04:52.901Z,11.25
2023-11-15T09:05:43.839Z,16.88
2023-11-15T09:06:34.731Z,11.25
2023-11-15T09:07:26.536Z,16.88
2023-11-15T09:08:16.282Z,16.88
2023-11-15T09:09:07.224Z,16.88
2023-11-15T09:09:58.113Z,16.88
2023-11-15T09:10:49.037Z,16.88
2023-11-15T09:11:39.960Z,16.88
2023-11-15T09:12:30.869Z,16.88
2023-11-15T09:13:21.794Z,16.88
2023-11-15T09:14:12.732Z,16.88
2023-11-15T09:15:03.650Z,16.88
2023-11-15T09:15:54.547Z,16.88
2023-11-15T09:16:46.176Z,16.88
2023-11-15T09:17:36.191Z,16.88
2023-11-15T09:18:27.187Z,22.50
2023-11-15T09:19:18.633Z,22.50
2023-11-15T09:20:08.952Z,22.50
2023-11-15T09:20:59.901Z,22.50
2023-11-15T09:21:50.851Z,22.50
2023-11-15T09:22:41.710Z,22.50
2023-11-15T09:23:32.666Z,22.50
2023-11-15T09:24:24.365Z,22.50
2023-11-15T09:25:14.742Z,22.50
2023-11-15T09:26:05.633Z,22.50
2023-11-15T09:26:56.583Z,22.50
2023-11-15T09:27:47.459Z,22.50
2023-11-15T09:28:38.375Z,22.50
2023-11-15T09:29:29.312Z,22.50
2023-11-15T09:30:20.260Z,22.50
2023-11-15T09:31:11.124Z,28.12
2023-11-15T09:32:02.051Z,28.12
2023-11-15T09:32:54.198Z,28.12
2023-11-15T09:33:43.985Z,28.12
2023-11-15T09:34:34.999Z,28.12
2023-11-15T09:35:25.904Z,28.12
2023-11-15T09:36:16.849Z,22.50
2023-11-15T09:37:07.751Z,28.12
2023-11-15T09:37:58.685Z,28.12
2023-11-15T09:38:49.624Z,28.12
2023-11-15T09:39:41.565Z,28.12
2023-11-15T09:40:31.253Z,28.12
2023-11-15T09:41:22.207Z,28.12
2023-11-15T09:42:13.117Z,28.12
2023-11-15T09:43:04.030Z,28.12
2023-11-15T09:43:54.964Z,28.12
2023-11-15T09:44:45.917Z,28.12
2023-11-15T09:45:36.784Z,28.12
2023-11-15T09:46:27.727Z,28.12
2023-11-15T09:47:18.637Z,28.12
2023-11-15T09:48:09.668Z,28.12
2023-11-15T09:49:05.461Z,28.12
2023-11-15T09:51:31.488Z,28.12
2023-11-15T09:52:22.407Z,28.12
2023-11-15T09:53:13.305Z,28.12
2023-11-15T09:54:12.494Z,28.12
2023-11-15T09:54:56.155Z,28.12
2023-11-15T09:55:45.815Z,28.12
2023-11-15T09:56:36.805Z,28.12
2023-11-15T09:57:27.694Z,28.12
2023-11-15T09:58:18.594Z,33.75
2023-11-15T10:00:12.763Z,33.75
2023-11-15T10:00:52.482Z,33.75
2023-11-15T10:01:42.148Z,33.75
2023-11-15T10:02:33.127Z,33.75
2023-11-15T10:03:24.084Z,33.75
2023-11-15T10:04:14.957Z,33.75
2023-11-15T10:05:05.877Z,33.75
2023-11-15T10:05:56.806Z,33.75
2023-11-15T10:06:48.837Z,33.75
2023-11-15T10:07:38.615Z,39.38
2023-11-15T10:08:29.533Z,39.38
2023-11-15T10:09:20.442Z,45.00
2023-11-15T10:10:11.335Z,50.62
2023-11-15T10:11:02.264Z,50.62
2023-11-15T10:11:53.201Z,185.62
2023-11-15T10:12:44.122Z,230.62
2023-11-15T10:13:35.043Z,191.25
2023-11-15T10:14:25.999Z,258.75
2023-11-15T10:15:16.934Z,270.00
2023-11-15T10:16:07.878Z,264.38
2023-11-15T10:16:58.793Z,253.12
2023-11-15T10:17:49.785Z,258.75
2023-11-15T10:18:40.727Z,258.75
2023-11-15T10:19:31.613Z,258.75
2023-11-15T10:20:22.566Z,258.75
2023-11-15T10:21:13.594Z,258.75
2023-11-15T10:22:04.588Z,253.12
2023-11-15T10:22:55.459Z,247.50
2023-11-15T10:23:46.419Z,241.88
2023-11-15T10:24:37.334Z,236.25
2023-11-15T10:25:28.268Z,247.50
2023-11-15T10:26:19.202Z,230.62
2023-11-15T10:27:10.365Z,196.88
2023-11-15T10:28:01.401Z,180.00
2023-11-15T10:28:52.284Z,118.12
2023-11-15T10:29:43.249Z,191.25
2023-11-15T10:30:34.171Z,202.50
2023-11-15T10:31:25.110Z,185.62
2023-11-15T10:32:16.007Z,78.75
2023-11-15T10:33:06.990Z,45.00
2023-11-15T10:33:57.842Z,39.38
2023-11-15T10:34:48.744Z,39.38
2023-11-15T10:35:39.720Z,39.38
2023-11-15T10:36:30.599Z,39.38
2023-11-15T10:37:21.512Z,39.38
2023-11-15T10:38:12.416Z,33.75
2023-11-15T10:39:03.365Z,28.12
2023-11-15T10:39:54.284Z,22.50
2023-11-15T10:40:45.149Z,22.50
2023-11-15T10:41:36.075Z,22.50
2023-11-15T10:42:26.955Z,16.88
2023-11-15T10:43:17.868Z,16.88
2023-11-15T10:44:08.817Z,22.50
2023-11-15T10:44:59.729Z,22.50
2023-11-15T10:45:50.627Z,33.75
2023-11-15T10:46:41.491Z,33.75
2023-11-15T10:47:32.437Z,33.75
2023-11-15T10:48:23.916Z,39.38
2023-11-15T10:49:14.284Z,45.00
2023-11-15T10:50:05.189Z,45.00
2023-11-15T10:50:56.171Z,50.62
2023-11-15T10:51:47.039Z,45.00
2023-11-15T10:52:38.279Z,45.00
2023-11-15T10:53:28.893Z,45.00
2023-11-15T10:54:19.791Z,45.00
2023-11-15T10:55:10.696Z,39.38
2023-11-15T10:56:01.620Z,45.00
2023-11-15T10:56:52.543Z,163.12
2023-11-15T10:57:43.476Z,208.12
2023-11-15T10:58:34.417Z,157.50
2023-11-15T10:59:25.353Z,163.12
2023-11-15T11:00:16.319Z,219.38
2023-11-15T11:01:07.286Z,219.38
2023-11-15T11:01:58.283Z,174.38
2023-11-15T11:02:49.192Z,174.38
2023-11-15T11:03:40.165Z,213.75
2023-11-15T11:04:31.208Z,219.38
2023-11-15T11:05:22.167Z,219.38
2023-11-15T11:06:13.148Z,213.75
2023-11-15T11:07:04.116Z,213.75
2023-11-15T11:07:55.027Z,208.12
2023-11-15T11:08:45.986Z,202.50
2023-11-15T11:09:36.915Z,191.25
2023-11-15T11:10:27.846Z,191.25
2023-11-15T11:11:18.787Z,185.62